createdAt,value
2022-09-14T00:01:25.684Z,9.80
2022-09-14T00:04:02.396Z,12.20
2022-09-14T00:07:01.983Z,5.30
2022-09-14T00:09:39.834Z,3.50
2022-09-14T00:12:16.668Z,5.80
2022-09-14T00:15:13.775Z,3.30
2022-09-14T00:17:54.784Z,1.00
2022-09-14T00:21:00.502Z,3.40
2022-09-14T00:23:52.880Z,11.30
2022-09-14T00:26:49.671Z,13.70
2022-09-14T00:29:52.035Z,15.00
2022-09-14T00:32:41.492Z,15.50
2022-09-14T00:35:32.720Z,16.10
2022-09-14T00:38:05.620Z,21.40
2022-09-14T00:40:42.414Z,32.10
2022-09-14T00:43:20.131Z,40.90
2022-09-14T00:46:05.861Z,55.20
2022-09-14T00:48:58.440Z,67.30
2022-09-14T00:52:03.213Z,69.00
2022-09-14T00:54:46.453Z,73.60
2022-09-14T00:58:02.443Z,74.40
2022-09-14T01:01:14.517Z,72.50
2022-09-14T01:04:13.946Z,73.90
2022-09-14T01:07:23.305Z,69.90
2022-09-14T01:10:11.752Z,72.40
2022-09-14T01:15:46.412Z,57.80
2022-09-14T01:18:34.264Z,57.60
2022-09-14T01:21:50.777Z,53.50
2022-09-14T01:24:44.855Z,54.30
2022-09-14T01:27:52.719Z,64.60
2022-09-14T01:30:39.371Z,50.80
2022-09-14T01:33:25.171Z,49.50
2022-09-14T01:36:12.845Z,51.30
2022-09-14T01:39:43.327Z,48.90
2022-09-14T01:42:26.523Z,47.10
2022-09-14T01:45:35.025Z,44.70
2022-09-14T01:48:08.264Z,43.30
2022-09-14T01:51:21.151Z,43.90
2022-09-14T01:54:07.336Z,42.90
2022-09-14T01:56:41.898Z,39.80
2022-09-14T01:59:21.042Z,45.70
2022-09-14T02:02:10.364Z,38.90
2022-09-14T02:04:52.288Z,41.20
2022-09-14T02:07:26.680Z,46.30
2022-09-14T02:10:09.506Z,46.60
2022-09-14T02:12:59.524Z,43.70
2022-09-14T02:15:42.309Z,47.00
2022-09-14T02:18:21.939Z,45.40
2022-09-14T02:21:07.733Z,45.50
2022-09-14T02:24:02.194Z,45.70
2022-09-14T02:26:51.608Z,44.30
2022-09-14T02:29:45.413Z,51.40
2022-09-14T02:32:25.474Z,54.50
2022-09-14T02:35:09.005Z,58.70
2022-09-14T02:37:54.734Z,68.70
2022-09-14T02:40:50.540Z,75.50
2022-09-14T02:43:32.225Z,88.20
2022-09-14T02:46:15.785Z,91.80
2022-09-14T02:48:52.309Z,95.70
2022-09-14T02:51:39.048Z,99.90
2022-09-14T02:54:17.489Z,99.90
2022-09-14T02:56:50.856Z,99.90
2022-09-14T02:59:21.964Z,99.90
2022-09-14T03:02:20.420Z,99.90
2022-09-14T03:05:29.174Z,99.90
2022-09-14T03:08:19.591Z,99.90
2022-09-14T03:11:00.034Z,99.90
2022-09-14T03:13:38.021Z,99.90
2022-09-14T03:16:22.667Z,99.90
2022-09-14T03:19:12.648Z,99.90
2022-09-14T03:22:00.225Z,99.90
2022-09-14T03:24:38.209Z,99.90
2022-09-14T03:27:18.533Z,99.90
2022-09-14T03:30:12.258Z,99.90
2022-09-14T03:32:46.551Z,99.90
2022-09-14T03:35:24.294Z,99.90
2022-09-14T03:38:07.485Z,99.90
2022-09-14T03:40:53.116Z,99.90
2022-09-14T03:43:25.339Z,99.90
2022-09-14T03:45:56.115Z,99.90
2022-09-14T03:48:27.042Z,99.90
2022-09-14T03:51:03.392Z,99.90
2022-09-14T03:53:32.264Z,99.90
2022-09-14T03:56:01.499Z,99.90
2022-09-14T03:58:38.891Z,99.90
2022-09-14T04:01:09.905Z,99.90
2022-09-14T04:03:44.831Z,99.90
2022-09-14T04:06:20.066Z,99.90
2022-09-14T04:08:48.925Z,99.90
2022-09-14T04:11:23.789Z,99.90
2022-09-14T04:13:59.778Z,99.90
2022-09-14T04:16:29.337Z,99.90
2022-09-14T04:18:58.172Z,99.90
2022-09-14T04:21:34.030Z,99.90
2022-09-14T04:24:15.256Z,99.90
2022-09-14T04:26:45.843Z,99.90
2022-09-14T04:29:17.107Z,99.90
2022-09-14T04:31:45.145Z,99.90
2022-09-14T04:34:17.668Z,99.90
2022-09-14T04:36:50.630Z,99.90
2022-09-14T04:39:19.181Z,99.90
2022-09-14T04:41:48.960Z,99.90
2022-09-14T04:44:20.041Z,99.90
2022-09-14T04:46:48.301Z,99.90
2022-09-14T04:49:19.644Z,99.90
2022-09-14T04:51:55.641Z,99.90
2022-09-14T04:54:27.210Z,99.90
2022-09-14T04:56:55.529Z,99.90
2022-09-14T04:59:22.717Z,99.90
2022-09-14T05:01:49.713Z,99.90
2022-09-14T05:04:17.163Z,99.90
2022-09-14T05:06:44.397Z,99.90
2022-09-14T05:09:14.094Z,99.90
2022-09-14T05:11:41.796Z,99.90
2022-09-14T05:14:13.058Z,99.90
2022-09-14T05:16:41.624Z,99.90
2022-09-14T05:19:12.538Z,99.90
2022-09-14T05:21:39.672Z,99.90
2022-09-14T05:24:12.784Z,99.90
2022-09-14T05:26:39.770Z,99.90
2022-09-14T05:29:06.784Z,99.90
2022-09-14T05:31:35.027Z,99.90
2022-09-14T05:34:01.977Z,99.90
2022-09-14T05:36:29.253Z,99.90
2022-09-14T05:38:57.869Z,99.90
2022-09-14T05:41:24.770Z,99.90
2022-09-14T05:43:51.551Z,99.90
2022-09-14T05:46:22.613Z,99.90
2022-09-14T05:48:51.982Z,99.90
2022-09-14T05:51:21.311Z,99.90
2022-09-14T05:53:49.862Z,99.90
2022-09-14T05:56:17.892Z,99.90
2022-09-14T05:58:45.211Z,99.90
2022-09-14T06:01:14.238Z,99.90
2022-09-14T06:03:41.737Z,99.90
2022-09-14T06:06:12.038Z,99.90
2022-09-14T06:08:39.208Z,99.90
2022-09-14T06:11:08.838Z,99.90
2022-09-14T06:13:36.002Z,99.90
2022-09-14T06:16:04.076Z,99.90
2022-09-14T06:18:32.437Z,99.90
2022-09-14T06:20:59.616Z,99.90
2022-09-14T06:23:28.694Z,99.90
2022-09-14T06:25:56.252Z,99.90
2022-09-14T06:28:23.819Z,99.90
2022-09-14T06:30:51.306Z,99.90
2022-09-14T06:33:18.661Z,99.90
2022-09-14T06:35:56.125Z,99.90
2022-09-14T06:38:23.110Z,99.90
2022-09-14T06:40:57.147Z,99.90
2022-09-14T06:43:24.558Z,99.90
2022-09-14T06:45:59.366Z,99.90
2022-09-14T06:48:26.289Z,96.20
2022-09-14T06:50:54.034Z,91.10
2022-09-14T06:53:21.080Z,86.00
2022-09-14T06:55:48.415Z,72.90
2022-09-14T06:58:16.866Z,60.90
2022-09-14T07:00:44.047Z,61.70
2022-09-14T07:03:10.955Z,50.30
2022-09-14T07:05:38.138Z,35.50
2022-09-14T07:08:08.978Z,39.90
2022-09-14T07:10:38.804Z,42.90
2022-09-14T07:13:05.726Z,45.10
2022-09-14T07:15:34.045Z,45.10
2022-09-14T07:18:00.871Z,46.10
2022-09-14T07:20:28.005Z,50.50
2022-09-14T07:22:55.449Z,40.50
2022-09-14T07:25:22.537Z,38.80
2022-09-14T07:27:49.321Z,41.80
2022-09-14T07:30:16.859Z,36.80
2022-09-14T07:32:44.951Z,33.50
2022-09-14T07:35:12.160Z,22.60
2022-09-14T07:37:38.919Z,17.90
2022-09-14T07:40:07.189Z,15.40
2022-09-14T07:42:34.243Z,15.10
2022-09-14T07:45:01.070Z,12.60
2022-09-14T07:47:27.862Z,10.10
2022-09-14T07:49:56.050Z,7.60
2022-09-14T07:52:22.944Z,1.00
2022-09-14T07:54:50.095Z,1.00
2022-09-14T07:57:17.082Z,1.00
2022-09-14T07:59:44.205Z,1.00
2022-09-14T08:02:11.657Z,1.00
2022-09-14T08:04:39.795Z,1.00
2022-09-14T08:07:09.080Z,1.00
2022-09-14T08:09:35.965Z,1.00
2022-09-14T08:12:04.051Z,1.00
2022-09-14T08:14:30.887Z,1.00
2022-09-14T08:16:57.940Z,1.00
2022-09-14T08:19:25.310Z,1.00
2022-09-14T08:21:52.274Z,1.00
2022-09-14T08:24:21.979Z,1.00
2022-09-14T08:26:49.527Z,1.00
2022-09-14T08:29:18.532Z,1.00
2022-09-14T08:31:47.000Z,1.00
2022-09-14T08:34:15.556Z,1.00
2022-09-14T08:36:43.566Z,1.00
2022-09-14T08:39:12.259Z,1.00
2022-09-14T08:41:46.095Z,1.00
2022-09-14T08:44:17.197Z,1.00
2022-09-14T08:46:47.945Z,1.00
2022-09-14T08:49:21.941Z,1.00
2022-09-14T08:51:50.178Z,1.00
2022-09-14T08:54:16.999Z,1.00
2022-09-14T08:56:52.146Z,1.00
2022-09-14T08:59:31.356Z,1.00
2022-09-14T09:02:14.421Z,1.00
2022-09-14T09:04:51.973Z,1.00
2022-09-14T09:07:30.070Z,1.00
2022-09-14T09:09:58.851Z,1.00
2022-09-14T09:12:36.656Z,1.00
2022-09-14T09:15:15.055Z,1.00
2022-09-14T09:17:46.056Z,1.00
2022-09-14T09:20:17.037Z,1.00
2022-09-14T09:22:53.532Z,1.00
2022-09-14T09:25:24.100Z,1.00
2022-09-14T09:27:55.145Z,1.00
2022-09-14T09:30:21.952Z,1.00
2022-09-14T09:32:49.267Z,1.00
2022-09-14T09:35:20.968Z,1.00
2022-09-14T09:37:48.138Z,1.00
2022-09-14T09:40:17.796Z,1.00
2022-09-14T09:43:05.967Z,1.00
2022-09-14T09:46:05.223Z,1.00
2022-09-14T09:48:43.018Z,1.00
2022-09-14T09:51:13.957Z,1.00
2022-09-14T09:53:48.201Z,1.00
2022-09-14T09:56:21.374Z,1.00
2022-09-14T09:58:51.712Z,1.00
2022-09-14T10:01:22.263Z,1.00
2022-09-14T10:04:03.494Z,1.00
2022-09-14T10:06:31.570Z,1.00
2022-09-14T10:08:58.758Z,1.00
2022-09-14T10:11:32.454Z,1.00
2022-09-14T10:14:00.639Z,1.00
2022-09-14T10:16:33.548Z,1.00
2022-09-14T10:19:02.840Z,1.00
2022-09-14T10:21:31.294Z,1.00
2022-09-14T10:24:05.540Z,1.00
2022-09-14T10:26:37.174Z,1.00
2022-09-14T10:29:28.728Z,1.00
2022-09-14T10:32:01.166Z,1.00
2022-09-14T10:34:28.562Z,1.00
2022-09-14T10:37:12.148Z,1.00
2022-09-14T10:39:45.501Z,1.00
2022-09-14T10:42:24.373Z,1.00
2022-09-14T10:45:03.918Z,1.00
2022-09-14T10:47:45.187Z,1.00
2022-09-14T10:50:27.303Z,1.00
2022-09-14T10:53:08.301Z,1.00
2022-09-14T10:55:43.737Z,1.00
2022-09-14T10:58:27.969Z,1.00
2022-09-14T11:01:08.803Z,1.00
2022-09-14T11:03:58.918Z,1.00
2022-09-14T11:06:36.930Z,1.00
2022-09-14T11:09:11.211Z,1.00
2022-09-14T11:11:51.943Z,1.00
2022-09-14T11:14:42.729Z,1.00
2022-09-14T11:17:36.549Z,1.00
2022-09-14T11:20:13.883Z,1.00
2022-09-14T11:22:52.195Z,1.00
2022-09-14T11:25:23.915Z,1.00
2022-09-14T11:28:00.912Z,1.00
2022-09-14T11:30:37.086Z,1.00
2022-09-14T11:33:11.720Z,1.00
2022-09-14T11:35:45.776Z,1.00
2022-09-14T11:38:17.423Z,1.00
2022-09-14T11:40:48.834Z,1.00
2022-09-14T11:43:19.080Z,1.00
2022-09-14T11:45:49.071Z,1.00
2022-09-14T11:48:42.800Z,1.00
2022-09-14T11:51:15.669Z,1.00
2022-09-14T11:53:43.815Z,1.00
2022-09-14T11:56:26.640Z,1.00
2022-09-14T11:58:56.073Z,1.00
2022-09-14T12:01:29.859Z,1.00
2022-09-14T12:04:19.187Z,1.00
2022-09-14T12:06:58.843Z,1.00
2022-09-14T12:09:40.738Z,1.00
2022-09-14T12:12:32.570Z,1.00
2022-09-14T12:15:01.972Z,1.00
2022-09-14T12:17:41.271Z,1.00
2022-09-14T12:20:38.610Z,1.00
2022-09-14T12:23:13.173Z,1.00
2022-09-14T12:25:53.997Z,1.00
2022-09-14T12:28:42.944Z,1.00
2022-09-14T12:31:14.233Z,1.00
2022-09-14T12:34:19.306Z,1.00
2022-09-14T12:37:31.805Z,1.00
2022-09-14T12:40:33.666Z,1.00
2022-09-14T12:43:43.984Z,1.00
2022-09-14T12:46:30.757Z,1.00
2022-09-14T12:49:02.897Z,1.00
2022-09-14T12:51:43.101Z,1.00
2022-09-14T12:54:24.776Z,1.00
2022-09-14T12:57:11.070Z,1.00
2022-09-14T12:59:51.965Z,1.00
2022-09-14T13:02:48.172Z,1.00
2022-09-14T13:05:18.964Z,1.00
2022-09-14T13:07:47.417Z,1.00
2022-09-14T13:10:20.704Z,1.00
2022-09-14T13:12:49.103Z,1.00
2022-09-14T13:15:21.186Z,1.00
2022-09-14T13:18:28.516Z,1.00
2022-09-14T13:20:58.523Z,1.00
2022-09-14T13:23:29.893Z,1.00
2022-09-14T13:25:58.529Z,1.00
2022-09-14T13:28:30.258Z,1.00
2022-09-14T13:30:59.000Z,1.00
2022-09-14T13:33:27.719Z,1.00
2022-09-14T13:35:56.627Z,1.00
2022-09-14T13:38:25.505Z,1.00
2022-09-14T13:40:55.311Z,1.00
2022-09-14T13:43:24.286Z,1.00
2022-09-14T13:45:52.064Z,1.00
2022-09-14T13:48:20.685Z,1.00
2022-09-14T13:50:49.478Z,1.00
2022-09-14T13:53:43.271Z,1.00
2022-09-14T13:56:21.771Z,1.00
2022-09-14T13:58:52.091Z,1.00
2022-09-14T14:01:27.365Z,1.00
2022-09-14T14:03:54.902Z,1.00
2022-09-14T14:06:25.800Z,1.00
2022-09-14T14:08:57.005Z,1.00
2022-09-14T14:11:31.877Z,1.00
2022-09-14T14:14:13.680Z,1.00
2022-09-14T14:16:40.984Z,1.00
2022-09-14T14:19:27.521Z,1.00
2022-09-14T14:22:15.946Z,1.00
2022-09-14T14:25:09.207Z,1.00
2022-09-14T14:27:33.160Z,1.00
2022-09-14T14:30:04.791Z,1.00
2022-09-14T14:32:31.714Z,1.00
2022-09-14T14:35:04.616Z,1.00
2022-09-14T14:37:31.710Z,1.00
2022-09-14T14:39:58.962Z,1.00
2022-09-14T14:42:26.120Z,1.00
2022-09-14T14:44:53.343Z,1.00
2022-09-14T14:47:23.193Z,1.00
2022-09-14T14:49:54.152Z,1.00
2022-09-14T14:52:21.161Z,1.00
2022-09-14T14:54:48.476Z,1.00
2022-09-14T14:57:15.833Z,1.00
2022-09-14T14:59:42.826Z,1.00
2022-09-14T15:02:09.977Z,1.00
2022-09-14T15:04:38.349Z,1.00
2022-09-14T15:07:05.176Z,1.00
2022-09-14T15:09:32.548Z,1.00
2022-09-14T15:11:59.362Z,1.00
2022-09-14T15:14:28.052Z,1.00
2022-09-14T15:16:59.513Z,1.00
2022-09-14T15:19:26.947Z,1.00
2022-09-14T15:22:00.044Z,1.00
2022-09-14T15:24:28.870Z,1.00
2022-09-14T15:26:56.017Z,1.00
2022-09-14T15:29:23.210Z,1.00
2022-09-14T15:31:50.177Z,1.00
2022-09-14T15:34:17.475Z,1.00
2022-09-14T15:36:50.367Z,1.00
2022-09-14T15:39:20.838Z,1.00
2022-09-14T15:41:47.692Z,1.00
2022-09-14T15:44:15.881Z,1.00
2022-09-14T15:46:46.878Z,1.00
2022-09-14T15:49:18.240Z,1.00
2022-09-14T15:51:46.866Z,1.00
2022-09-14T15:54:14.270Z,1.00
2022-09-14T15:56:45.179Z,1.00
2022-09-14T15:59:12.212Z,1.00
2022-09-14T16:01:38.964Z,1.00
2022-09-14T16:04:11.598Z,1.00
2022-09-14T16:06:39.090Z,1.00
2022-09-14T16:09:09.575Z,1.00
2022-09-14T16:11:37.219Z,1.00
2022-09-14T16:14:07.168Z,1.00
2022-09-14T16:16:36.165Z,1.00
2022-09-14T16:19:09.135Z,1.00
2022-09-14T16:21:39.995Z,1.00
2022-09-14T16:24:10.586Z,1.00
2022-09-14T16:26:40.638Z,1.00
2022-09-14T16:29:16.913Z,1.00
2022-09-14T16:31:47.061Z,1.00
2022-09-14T16:34:21.247Z,1.00
2022-09-14T16:36:52.381Z,1.00
2022-09-14T16:39:23.378Z,1.00
2022-09-14T16:41:54.052Z,1.00
2022-09-14T16:44:28.561Z,1.00
2022-09-14T16:46:58.830Z,1.00
2022-09-14T16:49:28.412Z,1.00
2022-09-14T16:51:56.572Z,1.00
2022-09-14T16:54:26.146Z,1.00
2022-09-14T16:57:05.574Z,1.00
2022-09-14T16:59:34.214Z,1.00
2022-09-14T17:02:01.283Z,1.00
2022-09-14T17:04:28.438Z,1.00
2022-09-14T17:06:56.493Z,1.00
2022-09-14T17:09:25.853Z,1.00
2022-09-14T17:11:54.140Z,1.00
2022-09-14T17:14:25.205Z,1.00
2022-09-14T17:16:53.471Z,1.00
2022-09-14T17:19:20.962Z,1.00
2022-09-14T17:21:48.623Z,1.00
2022-09-14T17:24:17.393Z,1.00
2022-09-14T17:26:44.225Z,1.00
2022-09-14T17:29:11.934Z,1.00
2022-09-14T17:31:40.775Z,1.00
2022-09-14T17:34:11.598Z,1.00
2022-09-14T17:36:39.088Z,1.00
2022-09-14T17:39:11.653Z,1.00
2022-09-14T17:41:42.358Z,1.00
2022-09-14T17:44:11.577Z,1.00
2022-09-14T17:46:45.434Z,1.00
2022-09-14T17:49:17.094Z,1.00
2022-09-14T17:51:48.112Z,1.00
2022-09-14T17:54:15.362Z,1.00
2022-09-14T17:56:42.159Z,1.00
2022-09-14T17:59:12.645Z,1.00
2022-09-14T18:01:39.735Z,1.00
2022-09-14T18:04:09.150Z,1.00
2022-09-14T18:06:39.596Z,1.00
2022-09-14T18:09:09.346Z,1.00
2022-09-14T18:11:36.815Z,1.00
2022-09-14T18:14:05.018Z,1.00
2022-09-14T18:16:32.920Z,1.00
2022-09-14T18:18:59.892Z,1.00
2022-09-14T18:21:26.924Z,2.20
2022-09-14T18:23:56.183Z,3.70
2022-09-14T18:26:24.276Z,4.90
2022-09-14T18:28:53.778Z,5.30
2022-09-14T18:31:20.648Z,8.50
2022-09-14T18:33:48.682Z,10.70
2022-09-14T18:36:15.725Z,14.70
2022-09-14T18:38:43.062Z,20.50
2022-09-14T18:41:12.080Z,26.20
2022-09-14T18:43:43.187Z,32.90
2022-09-14T18:46:10.145Z,30.60
2022-09-14T18:48:38.760Z,35.80
2022-09-14T18:51:06.392Z,45.10
2022-09-14T18:53:33.836Z,54.20
2022-09-14T18:56:01.937Z,58.20
2022-09-14T18:58:33.212Z,63.50
2022-09-14T19:01:00.215Z,55.70
2022-09-14T19:03:27.422Z,60.60
2022-09-14T19:05:54.257Z,64.40
2022-09-14T19:08:21.895Z,70.30
2022-09-14T19:10:48.914Z,71.80
2022-09-14T19:13:15.791Z,79.30
2022-09-14T19:15:44.520Z,96.90
2022-09-14T19:18:11.501Z,88.70
2022-09-14T19:21:04.863Z,88.30
2022-09-14T19:23:25.746Z,92.50
2022-09-14T19:25:52.584Z,96.10
2022-09-14T19:28:19.713Z,99.90
2022-09-14T19:30:49.994Z,99.90
2022-09-14T19:33:16.973Z,99.90
2022-09-14T19:35:44.331Z,99.90
2022-09-14T19:38:11.151Z,99.90
2022-09-14T19:40:38.265Z,99.90
2022-09-14T19:43:05.067Z,99.90
2022-09-14T19:45:34.895Z,99.90
2022-09-14T19:48:03.413Z,99.90
2022-09-14T19:50:30.333Z,99.90
2022-09-14T19:52:59.279Z,99.90
2022-09-14T19:55:30.974Z,99.90
2022-09-14T19:57:57.780Z,99.90
2022-09-14T20:00:24.901Z,99.90
2022-09-14T20:02:51.970Z,99.90
2022-09-14T20:05:20.467Z,99.90
2022-09-14T20:07:48.354Z,99.90
2022-09-14T20:10:15.693Z,99.90
2022-09-14T20:12:42.511Z,99.90
2022-09-14T20:15:10.392Z,99.90
2022-09-14T20:17:37.174Z,99.90
2022-09-14T20:20:05.411Z,99.90
2022-09-14T20:22:33.478Z,99.90
2022-09-14T20:25:00.843Z,99.90
2022-09-14T20:27:27.966Z,99.90
2022-09-14T20:29:55.160Z,99.90
2022-09-14T20:32:22.211Z,99.90
2022-09-14T20:34:49.292Z,99.90
2022-09-14T20:37:16.066Z,99.90
2022-09-14T20:39:44.734Z,99.90
2022-09-14T20:42:11.523Z,99.90
2022-09-14T20:44:38.332Z,99.90
2022-09-14T20:47:05.586Z,99.90
2022-09-14T20:49:32.427Z,99.90
2022-09-14T20:52:02.402Z,99.90
2022-09-14T20:54:29.883Z,99.90
2022-09-14T20:57:03.498Z,99.90
2022-09-14T20:59:31.402Z,99.90
2022-09-14T21:02:00.286Z,99.90
2022-09-14T21:04:29.165Z,99.90
2022-09-14T21:06:56.209Z,99.90
2022-09-14T21:09:24.798Z,99.90
2022-09-14T21:11:52.332Z,99.90
2022-09-14T21:14:21.706Z,99.90
2022-09-14T21:16:51.750Z,99.90
2022-09-14T21:19:20.621Z,99.90
2022-09-14T21:21:49.023Z,99.90
2022-09-14T21:24:17.064Z,99.90
2022-09-14T21:26:44.307Z,99.90
2022-09-14T21:29:14.280Z,99.90
2022-09-14T21:31:43.015Z,99.90
2022-09-14T21:34:10.551Z,99.90
2022-09-14T21:36:39.683Z,99.90
2022-09-14T21:39:09.073Z,99.90
2022-09-14T21:41:37.941Z,99.90
2022-09-14T21:44:05.750Z,99.90
2022-09-14T21:46:33.029Z,99.90
2022-09-14T21:49:01.154Z,99.90
2022-09-14T21:51:29.808Z,99.90
2022-09-14T21:53:58.681Z,99.90
2022-09-14T21:56:28.662Z,99.90
2022-09-14T21:58:57.428Z,99.90
2022-09-14T22:01:25.106Z,99.90
2022-09-14T22:03:53.848Z,99.90
2022-09-14T22:06:24.040Z,99.90
2022-09-14T22:08:52.450Z,99.90
2022-09-14T22:11:23.255Z,99.90
2022-09-14T22:13:54.300Z,99.90
2022-09-14T22:16:22.648Z,99.90
2022-09-14T22:18:51.121Z,99.90
2022-09-14T22:21:18.540Z,99.90
2022-09-14T22:23:51.293Z,99.90
2022-09-14T22:26:20.084Z,99.90
2022-09-14T22:28:48.013Z,99.90
2022-09-14T22:31:15.693Z,99.90
2022-09-14T22:33:43.040Z,99.90
2022-09-14T22:36:11.231Z,99.90
2022-09-14T22:38:41.251Z,99.90
2022-09-14T22:41:12.024Z,99.90
2022-09-14T22:43:40.122Z,99.90
2022-09-14T22:46:08.184Z,99.90
2022-09-14T22:48:36.225Z,99.90
2022-09-14T22:51:04.844Z,99.90
2022-09-14T22:53:33.127Z,99.90
2022-09-14T22:56:07.163Z,99.90
2022-09-14T22:58:36.272Z,99.90
2022-09-14T23:01:07.539Z,99.90
2022-09-14T23:03:34.819Z,99.90
2022-09-14T23:06:02.727Z,99.90
2022-09-14T23:08:30.243Z,99.90
2022-09-14T23:10:57.313Z,99.90
2022-09-14T23:13:24.529Z,99.90
2022-09-14T23:15:52.665Z,99.90
2022-09-14T23:18:19.631Z,99.90
2022-09-14T23:20:46.441Z,99.90
2022-09-14T23:23:13.898Z,99.90
2022-09-14T23:25:41.633Z,99.90
2022-09-14T23:28:12.145Z,99.90
2022-09-14T23:30:39.631Z,99.90
2022-09-14T23:33:07.921Z,99.90
2022-09-14T23:35:37.795Z,99.90
2022-09-14T23:38:05.296Z,99.90
2022-09-14T23:40:32.231Z,99.90
2022-09-14T23:42:59.528Z,99.90
2022-09-14T23:45:26.267Z,99.90
2022-09-14T23:47:53.247Z,99.90
2022-09-14T23:50:23.111Z,99.90
2022-09-14T23:52:50.207Z,99.90
2022-09-14T23:55:17.475Z,99.90
2022-09-14T23:57:44.724Z,99.90
